< Typhoon 201111 2011 Season Typhoon 201113 >
Typhoon 201112 (TALAS)
General InformationTrack Information on Google MapsDetailed Wind InformationAccess Analytics MapList of All Images || NewsDisaster Info.WeblogTrackbackTyphoon FrontTwiphoonTyphoon Now!Typhoon ImaginationResourceGoogle EarthGE AnimationAtom FeedGeoJSON
Detalied Best Track (Time Zone = UTC)
Year Month Day Hour Lat. Long. Pressure (hPa) Wind (kt) Class Image Chart
2011 8 23 18 15.2 142.7 1004 0 2 Image Chart
2011 8 24 00 15.6 141.8 1002 0 2 Image Chart
2011 8 24 06 16.1 141.7 1002 0 2 Image Chart
2011 8 24 12 16.8 141.2 1002 0 2 Image Chart
2011 8 24 18 17.5 140.8 1002 0 2 Image Chart
2011 8 25 00 18.4 140.6 998 35 3 Image Chart
2011 8 25 06 19.1 140.5 996 35 3 Image Chart
2011 8 25 12 19.7 140.4 994 40 3 Image Chart
2011 8 25 18 20.3 140.5 990 40 3 Image Chart
2011 8 26 00 21.0 140.5 985 45 3 Image Chart
2011 8 26 06 21.5 140.2 985 45 3 Image Chart
2011 8 26 12 22.1 139.8 985 45 3 Image Chart
2011 8 26 18 22.3 139.6 980 45 3 Image Chart
2011 8 27 00 22.4 139.6 980 45 3 Image Chart
2011 8 27 06 22.5 139.6 980 45 3 Image Chart
2011 8 27 12 22.6 139.5 975 50 4 Image Chart
2011 8 27 18 22.6 139.5 975 50 4 Image Chart
2011 8 28 00 22.8 139.5 975 50 4 Image Chart
2011 8 28 06 23.0 139.7 975 50 4 Image Chart
2011 8 28 12 23.3 140.1 975 50 4 Image Chart
2011 8 28 18 23.5 140.2 975 50 4 Image Chart
2011 8 29 00 23.7 140.1 975 50 4 Image Chart
2011 8 29 06 23.8 140.1 975 50 4 Image Chart
2011 8 29 12 24.1 140.1 970 50 4 Image Chart
2011 8 29 18 24.7 140.1 970 50 4 Image Chart
2011 8 30 00 25.2 140.1 970 50 4 Image Chart
2011 8 30 06 25.8 139.8 970 50 4 Image Chart
2011 8 30 09 26.0 139.6 970 50 4 Image Chart
2011 8 30 12 26.1 139.3 970 50 4 Image Chart
2011 8 30 15 26.3 138.8 970 50 4 Image Chart
2011 8 30 18 26.5 138.4 970 50 4 Image Chart
2011 8 30 21 26.4 138.0 970 50 4 Image Chart
2011 8 31 00 26.5 137.9 970 50 4 Image Chart
2011 8 31 03 26.7 137.6 970 50 4 Image Chart
2011 8 31 06 26.8 137.4 970 50 4 Image Chart
2011 8 31 09 26.9 137.3 970 50 4 Image Chart
2011 8 31 12 27.1 137.1 970 50 4 Image Chart
2011 8 31 15 27.3 136.9 970 50 4 Image Chart
2011 8 31 18 27.4 136.6 970 50 4 Image Chart
2011 8 31 21 27.5 136.5 970 50 4 Image Chart
2011 9 1 00 27.8 136.3 970 50 4 Image Chart
2011 9 1 03 28.1 136.2 970 50 4 Image Chart
2011 9 1 06 28.3 136.0 970 50 4 Image Chart
2011 9 1 09 28.5 135.8 970 50 4 Image Chart
2011 9 1 12 28.8 135.6 970 50 4 Image Chart
2011 9 1 15 29.0 135.4 970 50 4 Image Chart
2011 9 1 18 29.4 135.2 970 50 4 Image Chart
2011 9 1 21 29.9 135.1 970 50 4 Image Chart
2011 9 2 00 30.3 134.9 970 50 4 Image Chart
2011 9 2 03 30.8 134.6 970 50 4 Image Chart
2011 9 2 06 31.3 134.5 970 50 4 Image Chart
2011 9 2 09 31.7 134.5 970 50 4 Image Chart
2011 9 2 12 32.2 134.3 970 50 4 Image Chart
2011 9 2 15 32.6 134.0 975 50 4 Image Chart
2011 9 2 18 33.0 133.8 975 50 4 Image Chart
2011 9 2 21 33.2 133.8 980 50 4 Image Chart
2011 9 3 00 33.4 133.9 982 50 4 Image Chart
2011 9 3 01 33.6 133.9 984 50 4 Image Chart
2011 9 3 03 33.8 133.9 985 50 4 Image Chart
2011 9 3 06 34.0 133.9 985 50 4 Image Chart
2011 9 3 09 34.4 133.9 988 45 3 Image Chart
2011 9 3 12 34.7 134.0 990 45 3 Image Chart
2011 9 3 15 35.0 133.9 992 45 3 Image Chart
2011 9 3 18 35.4 133.7 992 45 3 Image Chart
2011 9 3 21 35.6 133.7 994 40 3 Image Chart
2011 9 4 00 35.8 133.7 994 40 3 Image Chart
2011 9 4 03 36.0 133.8 994 40 3 Image Chart
2011 9 4 06 36.1 133.9 994 40 3 Image Chart
2011 9 4 09 36.4 134.0 994 40 3 Image Chart
2011 9 4 12 36.7 134.1 994 40 3 Image Chart
2011 9 4 15 37.0 134.3 994 40 3 Image Chart
2011 9 4 18 37.3 134.5 994 40 3 Image Chart
2011 9 4 21 37.8 135.0 994 40 3 Image Chart
2011 9 5 00 39.4 136.3 994 40 3 Image Chart
2011 9 5 06 41.5 136.2 992 0 6 Image Chart
2011 9 5 12 42.5 136.4 992 0 6 Image Chart
2011 9 5 18 43.7 136.0 992 0 6 Image Chart
2011 9 6 00 44.7 135.8 992 0 6 Image Chart
2011 9 6 06 45.0 135.6 992 0 6 Image Chart
2011 9 6 12 45.0 135.2 992 0 6 Image Chart
2011 9 6 18 44.7 136.5 992 0 6 Image Chart
2011 9 7 00 45.2 137.4 992 0 6 Image Chart
2011 9 7 06 45.8 138.0 992 0 6 Image Chart
Japan Meteorological Agency Best Track Data | Correction Date : 2011-10-17
< Typhoon 201111 2011 Season Typhoon 201113 >

Help